createdAt,value
2023-03-27T00:00:16.847Z,9.73
2023-03-27T00:02:48.935Z,9.62
2023-03-27T00:05:20.512Z,9.57
2023-03-27T00:07:49.147Z,9.58
2023-03-27T00:10:17.852Z,9.61
2023-03-27T00:12:46.050Z,9.68
2023-03-27T00:15:17.394Z,9.71
2023-03-27T00:17:49.444Z,9.76
2023-03-27T00:20:21.238Z,9.69
2023-03-27T00:22:50.164Z,9.54
2023-03-27T00:25:18.408Z,9.48
2023-03-27T00:27:46.376Z,9.45
2023-03-27T00:30:15.745Z,9.44
2023-03-27T00:32:43.933Z,9.51
2023-03-27T00:35:14.351Z,9.52
2023-03-27T00:37:43.089Z,9.54
2023-03-27T00:40:17.693Z,9.59
2023-03-27T00:42:46.259Z,9.67
2023-03-27T00:45:18.499Z,9.71
2023-03-27T00:47:49.151Z,9.74
2023-03-27T00:50:21.788Z,9.73
2023-03-27T00:52:56.454Z,9.71
2023-03-27T00:55:25.120Z,9.71
2023-03-27T00:57:57.585Z,9.72
2023-03-27T01:00:26.045Z,9.70
2023-03-27T01:02:54.448Z,9.66
2023-03-27T01:05:23.936Z,9.62
2023-03-27T01:08:00.350Z,9.54
2023-03-27T01:10:41.848Z,9.49
2023-03-27T01:13:23.341Z,9.50
2023-03-27T01:15:59.879Z,9.51
2023-03-27T01:18:39.119Z,9.51
2023-03-27T01:21:38.514Z,9.51
2023-03-27T01:24:38.225Z,9.40
2023-03-27T01:27:12.692Z,9.37
2023-03-27T01:29:56.666Z,9.29
2023-03-27T01:33:00.093Z,9.19
2023-03-27T01:35:44.086Z,9.13
2023-03-27T01:38:47.340Z,9.07
2023-03-27T01:41:26.246Z,9.03
2023-03-27T01:43:59.159Z,9.01
2023-03-27T01:46:34.706Z,9.04
2023-03-27T01:49:07.444Z,9.14
2023-03-27T01:51:37.756Z,9.18
2023-03-27T01:54:12.227Z,9.17
2023-03-27T01:56:53.525Z,9.09
2023-03-27T01:59:25.108Z,9.11
2023-03-27T02:02:00.403Z,9.16
2023-03-27T02:04:34.685Z,9.22
2023-03-27T02:07:08.923Z,9.17
2023-03-27T02:09:41.852Z,9.13
2023-03-27T02:12:15.516Z,9.02
2023-03-27T02:14:49.489Z,8.97
2023-03-27T02:17:20.508Z,9.02
2023-03-27T02:19:56.274Z,9.07
2023-03-27T02:22:37.292Z,9.16
2023-03-27T02:25:28.885Z,9.18
2023-03-27T02:28:12.817Z,9.20
2023-03-27T02:30:46.499Z,9.22
2023-03-27T02:33:43.378Z,9.20
2023-03-27T02:36:21.731Z,9.18
2023-03-27T02:38:57.110Z,9.12
2023-03-27T02:41:32.713Z,9.03
2023-03-27T02:44:10.871Z,8.93
2023-03-27T02:46:44.538Z,8.84
2023-03-27T02:49:18.599Z,8.77
2023-03-27T02:51:51.924Z,8.72
2023-03-27T02:54:28.046Z,8.69
2023-03-27T02:56:59.133Z,8.76
2023-03-27T02:59:35.594Z,8.81
2023-03-27T03:02:05.214Z,8.86
2023-03-27T03:04:41.708Z,8.90
2023-03-27T03:07:11.568Z,8.93
2023-03-27T03:09:40.308Z,8.95
2023-03-27T03:12:09.863Z,8.96
2023-03-27T03:14:44.141Z,8.94
2023-03-27T03:17:12.301Z,8.93
2023-03-27T03:19:40.384Z,8.85
2023-03-27T03:22:08.541Z,8.83
2023-03-27T03:24:36.988Z,8.86
2023-03-27T03:27:05.935Z,8.91
2023-03-27T03:29:37.067Z,8.95
2023-03-27T03:32:06.908Z,8.92
2023-03-27T03:34:34.879Z,8.92
2023-03-27T03:37:03.017Z,8.93
2023-03-27T03:39:31.274Z,8.96
2023-03-27T03:41:59.291Z,8.98
2023-03-27T03:44:27.239Z,8.94
2023-03-27T03:46:55.417Z,8.91
2023-03-27T03:49:24.786Z,8.84
2023-03-27T03:52:03.883Z,8.81
2023-03-27T03:54:33.013Z,8.76
2023-03-27T03:57:01.227Z,8.76
2023-03-27T03:59:30.153Z,8.77
2023-03-27T04:01:58.267Z,8.80
2023-03-27T04:04:27.689Z,8.85
2023-03-27T04:06:58.397Z,8.89
2023-03-27T04:09:26.538Z,8.91
2023-03-27T04:11:54.503Z,8.95
2023-03-27T04:14:22.475Z,8.94
2023-03-27T04:16:50.452Z,8.89
2023-03-27T04:19:19.100Z,8.82
2023-03-27T04:21:48.618Z,8.78
2023-03-27T04:24:18.307Z,8.77
2023-03-27T04:26:46.748Z,8.75
2023-03-27T04:29:14.876Z,8.72
2023-03-27T04:31:46.713Z,8.72
2023-03-27T04:34:14.874Z,8.66
2023-03-27T04:36:42.919Z,8.69
2023-03-27T04:39:12.353Z,8.73
2023-03-27T04:41:40.627Z,8.74
2023-03-27T04:44:09.059Z,8.73
2023-03-27T04:46:37.190Z,8.72
2023-03-27T04:49:06.173Z,8.74
2023-03-27T04:51:34.124Z,8.75
2023-03-27T04:54:04.902Z,8.70
2023-03-27T04:56:35.054Z,8.70
2023-03-27T04:59:03.561Z,8.74
2023-03-27T05:01:31.933Z,8.75
2023-03-27T05:04:02.513Z,8.80
2023-03-27T05:06:30.602Z,8.87
2023-03-27T05:08:58.663Z,8.93
2023-03-27T05:11:27.120Z,9.02
2023-03-27T05:13:56.488Z,9.05
2023-03-27T05:16:26.617Z,9.08
2023-03-27T05:18:54.693Z,9.09
2023-03-27T05:21:22.640Z,9.13
2023-03-27T05:23:50.707Z,9.11
2023-03-27T05:26:19.161Z,9.04
2023-03-27T05:28:47.120Z,9.00
2023-03-27T05:31:16.648Z,9.02
2023-03-27T05:33:45.030Z,9.12
2023-03-27T05:36:13.212Z,9.17
2023-03-27T05:38:41.283Z,9.20
2023-03-27T05:41:10.147Z,9.27
2023-03-27T05:43:38.224Z,9.31
2023-03-27T05:46:06.747Z,9.31
2023-03-27T05:48:36.146Z,9.33
2023-03-27T05:51:04.243Z,9.37
2023-03-27T05:53:32.519Z,9.35
2023-03-27T05:56:03.111Z,9.35
2023-03-27T05:58:31.701Z,9.29
2023-03-27T06:01:00.732Z,9.31
2023-03-27T06:03:30.474Z,9.37
2023-03-27T06:06:01.086Z,9.42
2023-03-27T06:08:29.827Z,9.46
2023-03-27T06:10:58.705Z,9.45
2023-03-27T06:13:26.845Z,9.42
2023-03-27T06:15:56.750Z,9.47
2023-03-27T06:18:25.076Z,9.49
2023-03-27T06:20:53.087Z,9.51
2023-03-27T06:23:22.738Z,9.53
2023-03-27T06:25:51.388Z,9.53
2023-03-27T06:28:19.982Z,9.54
2023-03-27T06:30:48.849Z,9.55
2023-03-27T06:33:16.959Z,9.53
2023-03-27T06:35:52.499Z,9.51
2023-03-27T06:38:23.623Z,9.48
2023-03-27T06:40:51.791Z,9.40
2023-03-27T06:43:22.480Z,9.31
2023-03-27T06:45:51.977Z,9.23
2023-03-27T06:48:22.545Z,9.24
2023-03-27T06:50:53.476Z,9.27
2023-03-27T06:53:27.707Z,9.36
2023-03-27T06:55:57.770Z,9.37
2023-03-27T06:58:26.136Z,9.41
2023-03-27T07:00:54.163Z,9.48
2023-03-27T07:03:23.490Z,9.53
2023-03-27T07:05:51.652Z,9.53
2023-03-27T07:08:24.314Z,9.56
2023-03-27T07:13:25.808Z,9.60
2023-03-27T07:15:54.228Z,9.54
2023-03-27T07:18:23.238Z,9.49
2023-03-27T07:20:51.523Z,9.53
2023-03-27T07:23:19.549Z,9.54
2023-03-27T07:25:50.207Z,9.58
2023-03-27T07:28:21.013Z,9.59
2023-03-27T07:30:49.097Z,9.67
2023-03-27T07:33:17.406Z,9.68
2023-03-27T07:35:47.033Z,9.79
2023-03-27T07:38:16.786Z,9.87
2023-03-27T07:40:46.630Z,10.02
2023-03-27T07:43:15.097Z,10.09
2023-03-27T07:45:44.497Z,10.04
2023-03-27T07:48:16.315Z,9.92
2023-03-27T07:50:45.184Z,9.68
2023-03-27T07:53:34.021Z,9.51
2023-03-27T07:56:02.516Z,9.43
2023-03-27T07:58:30.696Z,9.39
2023-03-27T08:01:02.585Z,9.32
2023-03-27T08:03:32.081Z,9.28
2023-03-27T08:06:01.594Z,9.41
2023-03-27T08:08:30.271Z,9.52
2023-03-27T08:10:59.063Z,9.58
2023-03-27T08:13:27.277Z,9.67
2023-03-27T08:16:04.984Z,9.73
2023-03-27T08:18:33.038Z,9.67
2023-03-27T08:21:03.307Z,9.76
2023-03-27T08:23:32.845Z,9.82
2023-03-27T08:26:01.655Z,9.86
2023-03-27T08:28:29.852Z,9.94
2023-03-27T08:31:02.653Z,9.92
2023-03-27T08:33:32.460Z,9.90
2023-03-27T08:36:00.564Z,10.02
2023-03-27T08:38:33.369Z,10.14
2023-03-27T08:41:03.902Z,10.35
2023-03-27T08:43:37.481Z,10.41
2023-03-27T08:46:09.768Z,10.42
2023-03-27T08:48:45.306Z,10.67
2023-03-27T08:51:18.373Z,10.87
2023-03-27T08:53:53.002Z,10.86
2023-03-27T08:56:22.271Z,10.77
2023-03-27T08:58:50.505Z,10.79
2023-03-27T09:01:26.450Z,11.02
2023-03-27T09:04:04.221Z,11.54
2023-03-27T09:06:39.715Z,12.46
2023-03-27T09:09:13.131Z,12.58
2023-03-27T09:12:00.101Z,12.73
2023-03-27T09:14:33.177Z,13.76
2023-03-27T09:17:06.190Z,15.72
2023-03-27T09:19:46.810Z,17.32
2023-03-27T09:22:19.806Z,19.35
2023-03-27T09:24:50.093Z,21.50
2023-03-27T09:27:22.012Z,20.78
2023-03-27T09:30:05.440Z,19.42
2023-03-27T09:32:35.058Z,18.18
2023-03-27T09:35:05.124Z,17.17
2023-03-27T09:37:34.484Z,16.43
2023-03-27T09:40:08.093Z,15.89
2023-03-27T09:42:40.950Z,15.78
2023-03-27T09:45:13.877Z,15.50
2023-03-27T09:47:46.789Z,15.05
2023-03-27T09:50:27.745Z,14.75
2023-03-27T09:53:08.702Z,14.56
2023-03-27T09:55:45.528Z,14.45
2023-03-27T09:58:17.282Z,14.17
2023-03-27T10:00:45.367Z,14.01
2023-03-27T10:03:17.008Z,14.02
2023-03-27T10:05:47.182Z,13.84
2023-03-27T10:08:33.595Z,13.54
2023-03-27T10:11:08.029Z,13.28
2023-03-27T10:13:36.332Z,13.04
2023-03-27T10:16:06.604Z,12.88
2023-03-27T10:18:36.499Z,12.86
2023-03-27T10:21:10.851Z,13.17
2023-03-27T10:23:44.238Z,13.67
2023-03-27T10:26:15.127Z,13.75
2023-03-27T10:28:49.061Z,13.66
2023-03-27T10:31:30.828Z,13.45
2023-03-27T10:33:59.588Z,13.23
2023-03-27T10:36:34.638Z,13.33
2023-03-27T10:39:06.792Z,13.05
2023-03-27T10:41:37.393Z,12.97
2023-03-27T10:44:14.674Z,13.54
2023-03-27T10:46:44.223Z,14.44
2023-03-27T10:49:25.694Z,15.85
2023-03-27T10:52:07.157Z,16.75
2023-03-27T10:54:42.112Z,17.17
2023-03-27T10:57:13.874Z,18.54
2023-03-27T10:59:48.928Z,19.67
2023-03-27T11:02:20.689Z,20.86
2023-03-27T11:04:53.082Z,20.20
2023-03-27T11:07:29.492Z,19.79
2023-03-27T11:10:03.784Z,19.76
2023-03-27T11:12:36.397Z,19.32
2023-03-27T11:15:10.812Z,18.88
2023-03-27T11:17:47.383Z,18.39
2023-03-27T11:20:25.790Z,18.67
2023-03-27T11:23:02.403Z,18.74
2023-03-27T11:25:39.097Z,18.53
2023-03-27T11:28:17.963Z,18.20
2023-03-27T11:30:49.756Z,17.88
2023-03-27T11:33:47.966Z,17.76
2023-03-27T11:36:39.755Z,17.52
2023-03-27T11:39:23.295Z,17.04
2023-03-27T11:41:54.498Z,16.67
2023-03-27T11:44:22.801Z,16.59
2023-03-27T11:47:04.655Z,16.60
2023-03-27T11:49:50.371Z,16.49
2023-03-27T11:52:31.006Z,16.43
2023-03-27T11:55:12.044Z,16.28
2023-03-27T11:58:04.444Z,16.23
2023-03-27T12:00:37.010Z,16.20
2023-03-27T12:03:28.506Z,16.18
2023-03-27T12:06:06.018Z,16.11
2023-03-27T12:08:47.119Z,15.89
2023-03-27T12:11:18.779Z,15.66
2023-03-27T12:14:18.366Z,15.49
2023-03-27T12:17:05.320Z,15.20
2023-03-27T12:19:50.788Z,15.05
2023-03-27T12:22:29.685Z,14.71
2023-03-27T12:25:18.524Z,14.65
2023-03-27T12:27:56.206Z,14.67
2023-03-27T12:30:38.096Z,14.71
2023-03-27T12:33:28.321Z,14.92
2023-03-27T12:35:59.574Z,15.08
2023-03-27T12:38:30.768Z,15.11
2023-03-27T12:41:05.559Z,15.16
2023-03-27T12:43:39.949Z,15.20
2023-03-27T12:46:11.800Z,15.18
2023-03-27T12:49:34.252Z,15.37
2023-03-27T12:52:10.271Z,15.59
2023-03-27T12:54:39.784Z,15.79
2023-03-27T12:57:19.451Z,15.88
2023-03-27T12:59:55.558Z,15.80
2023-03-27T13:02:47.191Z,15.49
2023-03-27T13:05:29.273Z,15.36
2023-03-27T13:08:15.200Z,15.15
2023-03-27T13:10:51.754Z,15.19
2023-03-27T13:13:44.467Z,15.45
2023-03-27T13:16:27.351Z,15.67
2023-03-27T13:19:12.721Z,15.79
2023-03-27T13:21:54.309Z,15.98
2023-03-27T13:24:47.016Z,16.13
2023-03-27T13:27:29.944Z,16.17
2023-03-27T13:29:58.070Z,16.15
2023-03-27T13:32:38.950Z,16.14
2023-03-27T13:35:33.000Z,15.97
2023-03-27T13:38:01.161Z,15.85
2023-03-27T13:40:31.862Z,15.82
2023-03-27T13:43:11.369Z,15.60
2023-03-27T13:45:46.749Z,15.50
2023-03-27T13:48:42.600Z,15.41
2023-03-27T13:51:24.703Z,15.03
2023-03-27T13:54:12.935Z,14.70
2023-03-27T13:56:57.810Z,14.84
2023-03-27T13:59:44.691Z,14.92
2023-03-27T14:02:34.358Z,15.05
2023-03-27T14:05:37.600Z,15.29
2023-03-27T14:08:21.083Z,15.40
2023-03-27T14:11:10.010Z,15.52
2023-03-27T14:14:01.191Z,15.63
2023-03-27T14:16:46.190Z,15.68
2023-03-27T14:20:02.043Z,15.66
2023-03-27T14:22:38.164Z,15.61
2023-03-27T14:25:13.843Z,15.64
2023-03-27T14:27:45.553Z,15.68
2023-03-27T14:30:20.523Z,15.62
2023-03-27T14:32:50.151Z,15.50
2023-03-27T14:35:30.474Z,15.47
2023-03-27T14:38:01.497Z,15.54
2023-03-27T14:40:32.259Z,15.32
2023-03-27T14:43:01.946Z,15.24
2023-03-27T14:45:34.131Z,15.17
2023-03-27T14:48:04.679Z,15.16
2023-03-27T14:50:34.615Z,15.30
2023-03-27T14:53:10.008Z,15.35
2023-03-27T14:55:40.384Z,15.36
2023-03-27T14:58:18.114Z,15.29
2023-03-27T15:00:52.651Z,15.23
2023-03-27T15:03:26.253Z,15.21
2023-03-27T15:05:57.517Z,15.11
2023-03-27T15:08:29.599Z,15.13
2023-03-27T15:10:57.915Z,15.11
2023-03-27T15:13:27.129Z,15.03
2023-03-27T15:15:59.260Z,14.50
2023-03-27T15:18:32.998Z,14.28
2023-03-27T15:21:05.340Z,14.18
2023-03-27T15:23:41.211Z,14.14
2023-03-27T15:26:16.459Z,14.09
2023-03-27T15:28:53.561Z,14.06
2023-03-27T15:31:22.784Z,13.94
2023-03-27T15:34:02.225Z,13.85
2023-03-27T15:36:36.306Z,13.80
2023-03-27T15:39:06.849Z,13.83
2023-03-27T15:41:42.958Z,13.81
2023-03-27T15:44:14.170Z,13.77
2023-03-27T15:46:55.724Z,13.73
2023-03-27T15:49:28.030Z,13.63
2023-03-27T15:51:56.704Z,13.59
2023-03-27T15:54:28.932Z,13.61
2023-03-27T15:57:09.585Z,13.61
2023-03-27T15:59:52.174Z,13.67
2023-03-27T16:02:25.003Z,13.62
2023-03-27T16:04:55.579Z,13.38
2023-03-27T16:07:27.431Z,13.19
2023-03-27T16:09:59.854Z,13.14
2023-03-27T16:12:32.886Z,13.06
2023-03-27T16:15:05.802Z,13.04
2023-03-27T16:17:41.317Z,12.94
2023-03-27T16:20:33.451Z,12.90
2023-03-27T16:23:02.348Z,12.85
2023-03-27T16:25:31.841Z,12.68
2023-03-27T16:27:59.871Z,12.50
2023-03-27T16:30:30.737Z,12.28
2023-03-27T16:33:00.078Z,12.07
2023-03-27T16:35:28.750Z,11.86
2023-03-27T16:37:57.811Z,11.65
2023-03-27T16:40:26.155Z,11.55
2023-03-27T16:42:55.588Z,11.46
2023-03-27T16:45:23.595Z,11.33
2023-03-27T16:47:53.282Z,11.22
2023-03-27T16:50:24.618Z,11.04
2023-03-27T16:52:52.804Z,10.92
2023-03-27T16:55:21.180Z,10.83
2023-03-27T16:57:49.338Z,10.75
2023-03-27T17:00:20.131Z,10.68
2023-03-27T17:02:48.803Z,10.58
2023-03-27T17:05:17.081Z,10.48
2023-03-27T17:07:47.032Z,10.45
2023-03-27T17:10:15.963Z,10.39
2023-03-27T17:12:44.142Z,10.33
2023-03-27T17:15:12.648Z,10.25
2023-03-27T17:17:42.083Z,10.18
2023-03-27T17:20:11.034Z,10.08
2023-03-27T17:22:39.090Z,10.00
2023-03-27T17:25:09.947Z,9.89
2023-03-27T17:27:38.227Z,9.79
2023-03-27T17:30:07.514Z,9.68
2023-03-27T17:32:35.573Z,9.60
2023-03-27T17:35:05.732Z,9.54
2023-03-27T17:37:35.579Z,9.51
2023-03-27T17:40:06.161Z,9.48
2023-03-27T17:42:34.324Z,9.42
2023-03-27T17:45:02.423Z,9.39
2023-03-27T17:47:30.731Z,9.34
2023-03-27T17:49:58.839Z,9.29
2023-03-27T17:52:28.402Z,9.19
2023-03-27T17:54:58.811Z,9.11
2023-03-27T17:57:28.330Z,9.03
2023-03-27T17:59:56.312Z,8.98
2023-03-27T18:02:24.361Z,8.90
2023-03-27T18:04:53.141Z,8.86
2023-03-27T18:07:21.384Z,8.84
2023-03-27T18:09:51.725Z,8.82
2023-03-27T18:12:19.840Z,8.81
2023-03-27T18:14:47.904Z,8.82
2023-03-27T18:17:17.868Z,8.83
2023-03-27T18:19:45.945Z,8.83
2023-03-27T18:22:14.332Z,8.79
2023-03-27T18:24:43.443Z,8.73
2023-03-27T18:27:13.982Z,8.59
2023-03-27T18:29:42.824Z,8.52
2023-03-27T18:32:10.989Z,8.49
2023-03-27T18:34:38.921Z,8.47
2023-03-27T18:37:06.898Z,8.49
2023-03-27T18:39:37.880Z,8.50
2023-03-27T18:42:06.265Z,8.53
2023-03-27T18:44:38.048Z,8.53
2023-03-27T18:47:06.128Z,8.53
2023-03-27T18:49:34.153Z,8.51
2023-03-27T18:52:02.134Z,8.51
2023-03-27T18:54:30.441Z,8.49
2023-03-27T18:56:58.462Z,8.50
2023-03-27T18:59:27.090Z,8.51
2023-03-27T19:01:56.720Z,8.50
2023-03-27T19:04:24.817Z,8.51
2023-03-27T19:06:52.880Z,8.51
2023-03-27T19:09:25.549Z,8.51
2023-03-27T19:12:02.380Z,8.50
2023-03-27T19:14:30.806Z,8.50
2023-03-27T19:17:00.430Z,8.49
2023-03-27T19:19:29.309Z,8.50
2023-03-27T19:21:57.382Z,8.49
2023-03-27T19:24:25.495Z,8.51
2023-03-27T19:26:53.594Z,8.50
2023-03-27T19:29:21.955Z,8.54
2023-03-27T19:31:50.055Z,8.51
2023-03-27T19:34:29.892Z,8.48
2023-03-27T19:37:04.505Z,8.48
2023-03-27T19:39:32.565Z,8.50
2023-03-27T19:42:00.618Z,8.48
2023-03-27T19:44:29.096Z,8.46
2023-03-27T19:46:57.255Z,8.45
2023-03-27T19:49:26.766Z,8.43
2023-03-27T19:51:54.761Z,8.40
2023-03-27T19:54:22.818Z,8.40
2023-03-27T19:56:51.040Z,8.36
2023-03-27T19:59:29.903Z,8.30
2023-03-27T20:01:59.126Z,8.25
2023-03-27T20:04:28.717Z,8.25
2023-03-27T20:06:58.991Z,8.27
2023-03-27T20:09:27.266Z,8.27
2023-03-27T20:11:55.635Z,8.24
2023-03-27T20:14:23.692Z,8.21
2023-03-27T20:16:52.093Z,8.22
2023-03-27T20:19:21.943Z,8.20
2023-03-27T20:21:53.003Z,8.19
2023-03-27T20:24:21.102Z,8.18
2023-03-27T20:26:52.507Z,8.17
2023-03-27T20:29:24.275Z,8.17
2023-03-27T20:31:52.816Z,8.16
2023-03-27T20:34:22.917Z,8.17
2023-03-27T20:36:54.996Z,8.16
2023-03-27T20:39:23.057Z,8.16
2023-03-27T20:41:51.391Z,8.13
2023-03-27T20:44:19.431Z,8.08
2023-03-27T20:46:51.345Z,8.06
2023-03-27T20:51:57.879Z,8.01
2023-03-27T20:54:26.179Z,7.99
2023-03-27T20:56:54.214Z,7.94
2023-03-27T20:59:23.149Z,7.87
2023-03-27T21:01:52.640Z,7.85
2023-03-27T21:04:21.572Z,7.85
2023-03-27T21:06:49.723Z,7.79
2023-03-27T21:09:19.178Z,7.73
2023-03-27T21:11:47.300Z,7.67
2023-03-27T21:14:15.466Z,7.60
2023-03-27T21:16:44.236Z,7.54
2023-03-27T21:19:12.807Z,7.43
2023-03-27T21:21:40.962Z,7.37
2023-03-27T21:24:09.333Z,7.32
2023-03-27T21:26:38.740Z,7.28
2023-03-27T21:29:09.051Z,7.24
2023-03-27T21:31:37.109Z,7.21
2023-03-27T21:34:05.348Z,7.13
2023-03-27T21:36:33.533Z,7.10
2023-03-27T21:39:01.709Z,7.11
2023-03-27T21:41:30.011Z,7.10
2023-03-27T21:43:59.426Z,7.08
2023-03-27T21:46:27.972Z,7.08
2023-03-27T21:48:56.102Z,7.04
2023-03-27T21:51:24.181Z,7.02
2023-03-27T21:53:53.259Z,7.01
2023-03-27T21:56:21.299Z,7.02
2023-03-27T21:58:49.384Z,6.99
2023-03-27T22:01:18.998Z,6.95
2023-03-27T22:03:47.047Z,6.93
2023-03-27T22:06:15.329Z,6.93
2023-03-27T22:08:44.255Z,6.90
2023-03-27T22:11:13.227Z,6.87
2023-03-27T22:13:41.522Z,6.83
2023-03-27T22:16:11.118Z,6.81
2023-03-27T22:18:40.706Z,6.73
2023-03-27T22:21:19.276Z,6.69
2023-03-27T22:23:49.067Z,6.66
2023-03-27T22:26:17.238Z,6.67
2023-03-27T22:28:45.421Z,6.71
2023-03-27T22:31:13.796Z,6.75
2023-03-27T22:33:43.340Z,6.77
2023-03-27T22:36:12.873Z,6.78
2023-03-27T22:38:41.419Z,6.80
2023-03-27T22:41:12.104Z,6.81
2023-03-27T22:43:40.514Z,6.83
2023-03-27T22:46:10.518Z,6.83
2023-03-27T22:48:38.690Z,6.84
2023-03-27T22:51:09.298Z,6.83
2023-03-27T22:53:38.189Z,6.80
2023-03-27T22:56:07.893Z,6.78
2023-03-27T22:58:36.167Z,6.73
2023-03-27T23:01:04.916Z,6.67
2023-03-27T23:03:33.519Z,6.62
2023-03-27T23:06:01.820Z,6.57
2023-03-27T23:08:31.927Z,6.52
2023-03-27T23:11:01.674Z,6.45
2023-03-27T23:13:31.500Z,6.32
2023-03-27T23:16:00.280Z,6.24
2023-03-27T23:18:28.588Z,6.19
2023-03-27T23:20:57.917Z,6.11
2023-03-27T23:23:26.529Z,6.03
2023-03-27T23:25:57.731Z,5.97
2023-03-27T23:28:26.657Z,5.89
2023-03-27T23:30:55.678Z,5.87
2023-03-27T23:33:25.374Z,5.87
2023-03-27T23:35:54.299Z,5.87
2023-03-27T23:38:22.404Z,5.89
2023-03-27T23:40:57.840Z,5.90
2023-03-27T23:43:26.816Z,5.91
2023-03-27T23:45:55.912Z,5.93
2023-03-27T23:48:24.599Z,5.94
2023-03-27T23:50:53.220Z,5.96
2023-03-27T23:53:22.056Z,5.97
2023-03-27T23:55:50.069Z,5.95
2023-03-27T23:58:19.476Z,5.94
